createdAt,value
2019-02-20T00:00:34.316Z,1.43
2019-02-20T00:03:02.275Z,1.90
2019-02-20T00:05:30.221Z,1.77
2019-02-20T00:07:58.211Z,1.70
2019-02-20T00:10:27.456Z,1.80
2019-02-20T00:12:55.524Z,1.80
2019-02-20T00:15:23.585Z,1.40
2019-02-20T00:17:51.800Z,1.63
2019-02-20T00:20:19.912Z,1.50
2019-02-20T00:22:48.004Z,1.73
2019-02-20T00:25:16.114Z,1.90
2019-02-20T00:27:44.210Z,2.03
2019-02-20T00:30:12.435Z,1.80
2019-02-20T00:32:40.436Z,1.70
2019-02-20T00:35:08.984Z,1.97
2019-02-20T00:37:37.002Z,1.97
2019-02-20T00:40:05.251Z,2.07
2019-02-20T00:42:33.360Z,1.93
2019-02-20T00:45:35.411Z,1.70
2019-02-20T00:48:28.263Z,1.77
2019-02-20T00:51:04.206Z,1.70
2019-02-20T00:53:36.759Z,1.77
2019-02-20T00:56:04.696Z,2.37
2019-02-20T00:58:32.652Z,1.67
2019-02-20T01:01:00.675Z,2.10
2019-02-20T01:03:28.676Z,1.70
2019-02-20T01:05:56.684Z,1.90
2019-02-20T01:08:25.085Z,1.40
2019-02-20T01:10:56.104Z,2.60
2019-02-20T01:13:24.200Z,1.80
2019-02-20T01:15:52.285Z,1.60
2019-02-20T01:18:20.662Z,1.90
2019-02-20T01:20:48.796Z,2.10
2019-02-20T01:23:16.860Z,1.50
2019-02-20T01:25:44.926Z,1.43
2019-02-20T01:28:13.145Z,1.77
2019-02-20T01:30:41.928Z,1.40
2019-02-20T01:33:10.119Z,1.80
2019-02-20T01:35:38.139Z,2.00
2019-02-20T01:38:06.271Z,1.60
2019-02-20T01:40:34.290Z,1.60
2019-02-20T01:43:02.308Z,1.83
2019-02-20T01:45:30.300Z,1.97
2019-02-20T01:47:58.340Z,1.70
2019-02-20T01:50:26.317Z,1.57
2019-02-20T01:52:54.217Z,1.60
2019-02-20T01:55:22.192Z,1.80
2019-02-20T01:57:50.237Z,1.80
2019-02-20T02:00:18.166Z,1.73
2019-02-20T02:02:46.178Z,1.60
2019-02-20T02:05:15.735Z,1.57
2019-02-20T02:07:43.980Z,1.37
2019-02-20T02:10:12.064Z,1.70
2019-02-20T02:12:40.021Z,1.50
2019-02-20T02:15:08.239Z,1.50
2019-02-20T02:17:36.241Z,1.50
2019-02-20T02:20:04.496Z,1.50
2019-02-20T02:22:41.641Z,1.30
2019-02-20T02:25:09.720Z,1.20
2019-02-20T02:27:37.633Z,1.83
2019-02-20T02:30:05.811Z,1.40
2019-02-20T02:32:33.727Z,1.53
2019-02-20T02:35:01.726Z,1.63
2019-02-20T02:37:29.726Z,1.50
2019-02-20T02:39:57.727Z,1.30
2019-02-20T02:42:25.723Z,1.20
2019-02-20T02:44:53.810Z,1.60
2019-02-20T02:47:21.831Z,1.30
2019-02-20T02:49:49.783Z,1.43
2019-02-20T02:52:17.731Z,1.40
2019-02-20T02:54:45.775Z,1.20
2019-02-20T02:57:13.703Z,1.37
2019-02-20T02:59:41.679Z,1.13
2019-02-20T03:02:09.675Z,1.27
2019-02-20T03:04:37.695Z,1.50
2019-02-20T03:07:05.618Z,1.33
2019-02-20T03:09:33.574Z,1.30
2019-02-20T03:12:01.571Z,1.20
2019-02-20T03:14:29.567Z,1.33
2019-02-20T03:16:57.640Z,1.00
2019-02-20T03:19:25.732Z,0.90
2019-02-20T03:21:53.676Z,1.30
2019-02-20T03:24:21.619Z,1.30
2019-02-20T03:26:49.521Z,1.13
2019-02-20T03:29:17.467Z,0.93
2019-02-20T03:31:45.453Z,0.90
2019-02-20T03:34:13.417Z,1.00
2019-02-20T03:36:41.410Z,0.83
2019-02-20T03:39:09.481Z,1.10
2019-02-20T03:41:37.608Z,0.83
2019-02-20T03:44:05.639Z,0.67
2019-02-20T03:46:33.583Z,0.90
2019-02-20T03:49:01.505Z,0.80
2019-02-20T03:51:29.485Z,0.80
2019-02-20T03:53:57.617Z,0.80
2019-02-20T03:56:25.630Z,0.80
2019-02-20T03:58:53.639Z,0.90
2019-02-20T04:01:21.691Z,0.83
2019-02-20T04:03:49.602Z,0.90
2019-02-20T04:06:17.555Z,0.63
2019-02-20T04:08:45.535Z,0.90
2019-02-20T04:11:13.567Z,0.80
2019-02-20T04:13:41.571Z,0.80
2019-02-20T04:16:09.593Z,0.73
2019-02-20T04:18:37.601Z,1.00
2019-02-20T04:21:05.529Z,0.90
2019-02-20T04:23:33.462Z,0.67
2019-02-20T04:26:01.447Z,0.50
2019-02-20T04:28:29.441Z,0.83
2019-02-20T04:30:57.378Z,0.67
2019-02-20T04:33:25.367Z,0.60
2019-02-20T04:35:53.394Z,0.73
2019-02-20T04:38:21.332Z,0.77
2019-02-20T04:40:49.322Z,0.70
2019-02-20T04:43:17.347Z,0.80
2019-02-20T04:45:45.359Z,0.70
2019-02-20T04:48:13.343Z,0.57
2019-02-20T04:50:41.308Z,0.50
2019-02-20T04:53:09.280Z,0.97
2019-02-20T04:55:37.247Z,0.70
2019-02-20T04:58:18.183Z,0.60
2019-02-20T05:00:46.156Z,0.70
2019-02-20T05:03:14.178Z,0.60
2019-02-20T05:05:42.179Z,0.70
2019-02-20T05:08:10.151Z,0.50
2019-02-20T05:10:38.089Z,0.87
2019-02-20T05:13:06.072Z,0.67
2019-02-20T05:15:34.017Z,0.60
2019-02-20T05:18:01.925Z,0.77
2019-02-20T05:20:29.903Z,0.60
2019-02-20T05:22:57.891Z,0.83
2019-02-20T05:25:25.876Z,0.73
2019-02-20T05:27:53.860Z,0.70
2019-02-20T05:30:21.805Z,0.90
2019-02-20T05:32:49.793Z,0.50
2019-02-20T05:35:17.854Z,0.87
2019-02-20T05:37:45.879Z,0.70
2019-02-20T05:40:13.789Z,0.97
2019-02-20T05:42:41.720Z,0.70
2019-02-20T05:45:09.724Z,0.43
2019-02-20T05:47:37.629Z,0.63
2019-02-20T05:50:05.764Z,0.80
2019-02-20T05:52:33.705Z,0.70
2019-02-20T05:55:01.668Z,0.70
2019-02-20T05:57:29.797Z,0.80
2019-02-20T05:59:57.869Z,0.70
2019-02-20T06:02:25.881Z,1.00
2019-02-20T06:04:53.851Z,0.70
2019-02-20T06:07:21.894Z,0.73
2019-02-20T06:09:49.890Z,0.70
2019-02-20T06:12:17.934Z,0.77
2019-02-20T06:14:46.051Z,0.80
2019-02-20T06:17:14.156Z,0.80
2019-02-20T06:19:42.192Z,0.63
2019-02-20T06:22:10.172Z,0.87
2019-02-20T06:24:44.098Z,0.70
2019-02-20T06:27:08.075Z,0.93
2019-02-20T06:29:36.069Z,0.70
2019-02-20T06:32:04.140Z,0.93
2019-02-20T06:34:32.126Z,0.60
2019-02-20T06:37:00.157Z,0.73
2019-02-20T06:39:28.178Z,0.70
2019-02-20T06:41:56.223Z,0.53
2019-02-20T06:44:24.256Z,0.90
2019-02-20T06:46:52.291Z,0.90
2019-02-20T06:49:20.396Z,0.90
2019-02-20T06:51:48.511Z,0.77
2019-02-20T06:54:16.740Z,0.93
2019-02-20T06:56:44.789Z,0.80
2019-02-20T06:59:12.859Z,1.00
2019-02-20T07:01:40.897Z,1.10
2019-02-20T07:04:09.054Z,0.70
2019-02-20T07:06:45.268Z,0.70
2019-02-20T07:09:34.559Z,1.07
2019-02-20T07:12:21.676Z,1.00
2019-02-20T07:14:55.200Z,0.80
2019-02-20T07:17:42.313Z,0.83
2019-02-20T07:20:32.343Z,0.80
2019-02-20T07:23:28.791Z,0.90
2019-02-20T07:26:10.348Z,0.80
2019-02-20T07:29:06.616Z,1.17
2019-02-20T07:31:34.551Z,0.90
2019-02-20T07:34:02.650Z,0.80
2019-02-20T07:36:30.668Z,1.00
2019-02-20T07:38:58.751Z,1.10
2019-02-20T07:41:26.811Z,0.90
2019-02-20T07:43:54.792Z,1.03
2019-02-20T07:46:24.947Z,1.03
2019-02-20T07:48:52.996Z,0.83
2019-02-20T07:51:21.360Z,1.00
2019-02-20T07:53:49.332Z,0.77
2019-02-20T07:56:17.283Z,0.80
2019-02-20T07:58:45.228Z,0.90
2019-02-20T08:01:13.319Z,1.00
2019-02-20T08:03:41.327Z,1.23
2019-02-20T08:06:09.341Z,1.57
2019-02-20T08:08:37.423Z,1.00
2019-02-20T08:11:05.427Z,1.30
2019-02-20T08:13:39.318Z,1.33
2019-02-20T08:16:03.130Z,1.03
2019-02-20T08:18:31.108Z,1.30
2019-02-20T08:20:59.172Z,1.10
2019-02-20T08:23:27.201Z,0.90
2019-02-20T08:25:55.252Z,1.07
2019-02-20T08:28:23.286Z,0.80
2019-02-20T08:30:51.397Z,1.03
2019-02-20T08:33:19.431Z,1.23
2019-02-20T08:35:47.536Z,1.23
2019-02-20T08:38:15.603Z,1.10
2019-02-20T08:40:43.663Z,0.90
2019-02-20T08:43:12.276Z,0.97
2019-02-20T08:45:40.303Z,1.07
2019-02-20T08:48:08.379Z,1.10
2019-02-20T08:50:36.371Z,0.90
2019-02-20T08:53:04.348Z,0.80
2019-02-20T08:55:32.542Z,1.00
2019-02-20T08:58:00.694Z,0.77
2019-02-20T09:00:28.721Z,1.10
2019-02-20T09:02:56.647Z,1.17
2019-02-20T09:05:24.728Z,1.20
2019-02-20T09:07:52.724Z,0.80
2019-02-20T09:10:20.724Z,1.30
2019-02-20T09:12:48.668Z,0.97
2019-02-20T09:15:16.660Z,1.03
2019-02-20T09:17:44.588Z,1.10
2019-02-20T09:20:12.601Z,1.17
2019-02-20T09:22:40.515Z,1.17
2019-02-20T09:25:19.427Z,0.80
2019-02-20T09:27:41.571Z,1.07
2019-02-20T09:30:10.785Z,0.73
2019-02-20T09:32:38.715Z,0.93
2019-02-20T09:35:06.659Z,1.47
2019-02-20T09:37:34.579Z,0.80
2019-02-20T09:40:02.525Z,1.20
2019-02-20T09:42:30.564Z,0.80
2019-02-20T09:44:58.978Z,1.33
2019-02-20T09:47:27.063Z,0.63
2019-02-20T09:49:55.108Z,0.80
2019-02-20T09:52:23.136Z,0.97
2019-02-20T09:54:51.111Z,1.23
2019-02-20T09:57:19.130Z,1.23
2019-02-20T09:59:47.124Z,1.27
2019-02-20T10:02:15.098Z,1.07
2019-02-20T10:04:43.110Z,1.20
2019-02-20T10:07:11.134Z,1.00
2019-02-20T10:09:39.198Z,0.93
2019-02-20T10:12:07.225Z,1.17
2019-02-20T10:14:35.232Z,1.07
2019-02-20T10:17:03.381Z,1.00
2019-02-20T10:19:31.415Z,1.00
2019-02-20T10:21:59.432Z,0.87
2019-02-20T10:24:27.465Z,1.10
2019-02-20T10:27:00.600Z,1.40
2019-02-20T10:29:25.105Z,0.90
2019-02-20T10:31:53.037Z,1.20
2019-02-20T10:34:21.015Z,1.07
2019-02-20T10:36:49.008Z,1.20
2019-02-20T10:39:17.047Z,1.20
2019-02-20T10:41:45.207Z,1.00
2019-02-20T10:44:13.263Z,1.27
2019-02-20T10:46:41.203Z,1.17
2019-02-20T10:49:09.287Z,1.00
2019-02-20T10:51:37.310Z,1.00
2019-02-20T10:54:05.298Z,1.30
2019-02-20T10:56:33.387Z,0.90
2019-02-20T10:59:01.359Z,1.20
2019-02-20T11:01:29.327Z,1.10
2019-02-20T11:03:57.329Z,0.80
2019-02-20T11:06:25.263Z,0.80
2019-02-20T11:08:53.287Z,1.00
2019-02-20T11:11:21.337Z,1.03
2019-02-20T11:13:49.341Z,1.00
2019-02-20T11:16:17.374Z,1.13
2019-02-20T11:18:45.413Z,1.00
2019-02-20T11:21:13.505Z,1.00
2019-02-20T11:23:41.452Z,0.90
2019-02-20T11:26:17.550Z,0.90
2019-02-20T11:28:39.099Z,1.03
2019-02-20T11:31:07.135Z,1.10
2019-02-20T11:33:35.323Z,1.00
2019-02-20T11:36:03.325Z,0.57
2019-02-20T11:38:31.293Z,0.87
2019-02-20T11:40:59.363Z,0.90
2019-02-20T11:43:27.458Z,1.00
2019-02-20T11:45:55.495Z,0.90
2019-02-20T11:48:23.481Z,1.03
2019-02-20T11:50:51.417Z,1.27
2019-02-20T11:53:19.334Z,0.93
2019-02-20T11:55:47.400Z,1.00
2019-02-20T11:58:15.406Z,1.00
2019-02-20T12:00:43.479Z,0.90
2019-02-20T12:03:11.441Z,0.70
2019-02-20T12:05:39.490Z,0.90
2019-02-20T12:08:08.061Z,0.97
2019-02-20T12:10:36.685Z,0.83
2019-02-20T12:13:04.828Z,1.30
2019-02-20T12:15:32.774Z,1.00
2019-02-20T12:18:00.862Z,0.80
2019-02-20T12:20:28.869Z,1.00
2019-02-20T12:22:56.867Z,1.33
2019-02-20T12:25:24.848Z,1.30
2019-02-20T12:27:52.907Z,1.10
2019-02-20T12:30:21.021Z,1.40
2019-02-20T12:32:49.023Z,0.90
2019-02-20T12:35:17.019Z,1.13
2019-02-20T12:37:45.053Z,1.20
2019-02-20T12:40:13.061Z,1.20
2019-02-20T12:42:41.995Z,1.10
2019-02-20T12:45:10.332Z,1.60
2019-02-20T12:47:38.316Z,1.00
2019-02-20T12:50:06.341Z,1.10
2019-02-20T12:52:34.240Z,1.00
2019-02-20T12:55:02.178Z,1.00
2019-02-20T12:57:30.171Z,0.90
2019-02-20T12:59:58.160Z,1.27
2019-02-20T13:02:26.119Z,0.93
2019-02-20T13:04:54.065Z,0.90
2019-02-20T13:07:22.121Z,1.00
2019-02-20T13:09:50.569Z,0.90
2019-02-20T13:12:18.712Z,1.13
2019-02-20T13:14:48.900Z,0.90
2019-02-20T13:17:17.851Z,1.03
2019-02-20T13:19:45.847Z,0.83
2019-02-20T13:22:13.856Z,1.07
2019-02-20T13:24:41.757Z,0.83
2019-02-20T13:27:10.413Z,0.93
2019-02-20T13:29:38.413Z,0.80
2019-02-20T13:32:06.412Z,0.90
2019-02-20T13:34:34.331Z,0.90
2019-02-20T13:37:03.691Z,1.33
2019-02-20T13:39:31.760Z,0.80
2019-02-20T13:41:59.899Z,1.00
2019-02-20T13:44:27.964Z,1.00
2019-02-20T13:46:56.111Z,0.80
2019-02-20T13:49:24.171Z,0.70
2019-02-20T13:51:52.216Z,1.00
2019-02-20T13:54:20.332Z,1.10
2019-02-20T13:56:48.396Z,1.07
2019-02-20T13:59:16.431Z,1.07
2019-02-20T14:01:45.640Z,1.20
2019-02-20T14:04:14.032Z,0.83
2019-02-20T14:06:42.115Z,0.80
2019-02-20T14:09:10.378Z,0.90
2019-02-20T14:11:38.476Z,0.73
2019-02-20T14:14:06.519Z,1.00
2019-02-20T14:16:34.599Z,1.13
2019-02-20T14:19:02.740Z,1.13
2019-02-20T14:21:30.945Z,1.00
2019-02-20T14:23:58.947Z,0.80
2019-02-20T14:26:26.944Z,1.00
2019-02-20T14:28:54.961Z,1.03
2019-02-20T14:31:23.039Z,1.30
2019-02-20T14:33:51.062Z,0.90
2019-02-20T14:36:19.118Z,0.80
2019-02-20T14:38:47.642Z,1.00
2019-02-20T14:41:15.654Z,1.30
2019-02-20T14:43:43.648Z,1.53
2019-02-20T14:46:11.658Z,1.10
2019-02-20T14:48:39.801Z,1.30
2019-02-20T14:51:10.882Z,1.47
2019-02-20T14:53:38.924Z,1.33
2019-02-20T14:56:07.220Z,1.27
2019-02-20T14:58:35.315Z,1.20
2019-02-20T15:01:03.306Z,0.87
2019-02-20T15:03:31.393Z,1.20
2019-02-20T15:05:59.436Z,1.00
2019-02-20T15:08:27.501Z,1.10
2019-02-20T15:10:55.569Z,1.10
2019-02-20T15:13:23.825Z,1.10
2019-02-20T15:15:51.832Z,1.03
2019-02-20T15:18:19.971Z,1.13
2019-02-20T15:20:48.855Z,1.10
2019-02-20T15:23:16.995Z,0.87
2019-02-20T15:25:45.031Z,1.00
2019-02-20T15:28:13.103Z,0.90
2019-02-20T15:30:41.387Z,1.10
2019-02-20T15:33:09.462Z,0.90
2019-02-20T15:35:37.446Z,0.80
2019-02-20T15:38:05.543Z,1.60
2019-02-20T15:40:33.632Z,1.00
2019-02-20T15:43:01.740Z,0.90
2019-02-20T15:45:29.794Z,0.80
2019-02-20T15:47:58.040Z,0.97
2019-02-20T15:50:26.108Z,1.23
2019-02-20T15:52:54.153Z,1.70
2019-02-20T15:55:22.185Z,1.90
2019-02-20T15:57:50.302Z,1.63
2019-02-20T16:00:19.801Z,1.43
2019-02-20T16:02:47.951Z,1.30
2019-02-20T16:05:16.312Z,1.30
2019-02-20T16:07:44.338Z,1.37
2019-02-20T16:10:12.370Z,0.93
2019-02-20T16:12:40.467Z,1.37
2019-02-20T16:15:08.583Z,1.33
2019-02-20T16:17:36.639Z,1.43
2019-02-20T16:20:05.191Z,1.10
2019-02-20T16:22:36.172Z,1.57
2019-02-20T16:25:04.304Z,1.73
2019-02-20T16:27:32.333Z,1.20
2019-02-20T16:30:00.452Z,1.10
2019-02-20T16:32:28.527Z,1.30
2019-02-20T16:34:56.597Z,1.20
2019-02-20T16:37:24.633Z,1.07
2019-02-20T16:39:52.761Z,1.13
2019-02-20T16:42:21.132Z,1.20
2019-02-20T16:44:49.332Z,1.00
2019-02-20T16:47:17.602Z,1.57
2019-02-20T16:49:45.685Z,1.10
2019-02-20T16:52:13.727Z,0.90
2019-02-20T16:54:41.821Z,1.10
2019-02-20T16:57:10.200Z,1.03
2019-02-20T16:59:38.320Z,0.77
2019-02-20T17:02:07.278Z,1.10
2019-02-20T17:04:35.348Z,1.13
2019-02-20T17:07:03.400Z,0.87
2019-02-20T17:09:31.506Z,1.23
2019-02-20T17:12:01.405Z,1.00
2019-02-20T17:14:29.260Z,0.80
2019-02-20T17:16:57.291Z,0.73
2019-02-20T17:19:26.433Z,0.87
2019-02-20T17:21:54.567Z,0.97
2019-02-20T17:24:22.679Z,1.10
2019-02-20T17:26:50.739Z,1.10
2019-02-20T17:29:19.011Z,1.00
2019-02-20T17:31:47.067Z,0.93
2019-02-20T17:34:15.152Z,1.10
2019-02-20T17:36:45.979Z,0.90
2019-02-20T17:39:13.979Z,1.00
2019-02-20T17:41:42.004Z,1.00
2019-02-20T17:44:10.202Z,1.00
2019-02-20T17:46:38.443Z,1.00
2019-02-20T17:49:06.548Z,1.00
2019-02-20T17:51:34.786Z,0.80
2019-02-20T17:54:02.771Z,0.97
2019-02-20T17:56:30.800Z,1.00
2019-02-20T17:58:58.927Z,1.07
2019-02-20T18:01:28.157Z,1.00
2019-02-20T18:03:56.385Z,0.87
2019-02-20T18:06:24.457Z,0.80
2019-02-20T18:08:52.632Z,1.00
2019-02-20T18:11:20.722Z,0.73
2019-02-20T18:13:49.195Z,1.00
2019-02-20T18:16:17.158Z,0.70
2019-02-20T18:18:45.164Z,0.80
2019-02-20T18:21:15.121Z,0.87
2019-02-20T18:23:42.793Z,0.90
2019-02-20T18:26:10.764Z,0.93
2019-02-20T18:28:38.697Z,1.07
2019-02-20T18:31:06.722Z,1.17
2019-02-20T18:33:34.824Z,0.90
2019-02-20T18:36:02.828Z,0.90
2019-02-20T18:38:31.402Z,1.00
2019-02-20T18:40:59.396Z,0.70
2019-02-20T18:43:27.340Z,1.00
2019-02-20T18:45:55.356Z,0.70
2019-02-20T18:48:23.432Z,0.87
2019-02-20T18:50:51.480Z,0.90
2019-02-20T18:53:19.587Z,1.00
2019-02-20T18:55:47.698Z,1.00
2019-02-20T18:58:15.860Z,0.90
2019-02-20T19:00:43.929Z,0.80
2019-02-20T19:03:11.977Z,0.87
2019-02-20T19:05:40.067Z,0.80
2019-02-20T19:08:26.074Z,0.90
2019-02-20T19:10:57.595Z,0.70
2019-02-20T19:13:36.008Z,0.80
2019-02-20T19:16:22.564Z,0.70
2019-02-20T19:19:13.148Z,1.07
2019-02-20T19:21:48.070Z,1.07
2019-02-20T19:24:33.065Z,1.10
2019-02-20T19:27:20.192Z,1.00
2019-02-20T19:30:10.243Z,1.10
2019-02-20T19:32:44.408Z,0.87
2019-02-20T19:35:34.531Z,0.90
2019-02-20T19:38:15.794Z,1.00
2019-02-20T19:41:09.452Z,2.27
2019-02-20T19:43:40.603Z,2.17
2019-02-20T19:46:23.922Z,1.77
2019-02-20T19:49:14.285Z,1.23
2019-02-20T19:51:59.991Z,1.37
2019-02-20T19:54:30.213Z,1.10
2019-02-20T19:57:16.027Z,1.20
2019-02-20T19:59:57.687Z,1.60
2019-02-20T20:02:43.721Z,1.77
2019-02-20T20:05:27.827Z,1.50
2019-02-20T20:08:09.090Z,1.50
2019-02-20T20:10:54.773Z,1.60
2019-02-20T20:13:51.035Z,1.70
2019-02-20T20:16:35.956Z,1.20
2019-02-20T20:19:18.885Z,1.03
2019-02-20T20:21:51.377Z,1.40
2019-02-20T20:24:38.543Z,1.40
2019-02-20T20:27:26.335Z,1.27
2019-02-20T20:30:22.675Z,1.40
2019-02-20T20:33:16.015Z,0.93
2019-02-20T20:36:09.137Z,1.17
2019-02-20T20:38:56.222Z,1.00
2019-02-20T20:41:43.520Z,1.07
2019-02-20T20:44:27.603Z,1.60
2019-02-20T20:47:07.038Z,2.13
2019-02-20T20:49:52.855Z,1.60
2019-02-20T20:52:33.403Z,1.70
2019-02-20T20:55:20.406Z,2.33
2019-02-20T20:58:13.875Z,2.50
2019-02-20T21:01:03.816Z,2.53
2019-02-20T21:03:32.008Z,1.87
2019-02-20T21:06:13.389Z,1.60
2019-02-20T21:09:04.225Z,1.80
2019-02-20T21:11:45.528Z,1.90
2019-02-20T21:14:31.406Z,1.70
2019-02-20T21:17:17.142Z,1.30
2019-02-20T21:20:04.244Z,1.77
2019-02-20T21:22:51.349Z,1.67
2019-02-20T21:25:24.781Z,1.40
2019-02-20T21:27:57.249Z,1.20
2019-02-20T21:30:47.580Z,1.70
2019-02-20T21:33:40.529Z,1.37
2019-02-20T21:36:14.179Z,1.87
2019-02-20T21:38:56.060Z,1.10
2019-02-20T21:41:34.271Z,1.37
2019-02-20T21:44:14.910Z,1.30
2019-02-20T21:46:45.882Z,1.30
2019-02-20T21:49:51.382Z,1.40
2019-02-20T21:52:30.192Z,1.50
2019-02-20T21:55:04.735Z,2.37
2019-02-20T21:57:42.544Z,2.20
2019-02-20T22:00:17.103Z,1.63
2019-02-20T22:03:04.448Z,2.73
2019-02-20T22:05:51.569Z,2.20
2019-02-20T22:08:37.425Z,2.27
2019-02-20T22:11:15.324Z,2.40
2019-02-20T22:13:57.020Z,1.63
2019-02-20T22:16:30.444Z,2.10
2019-02-20T22:19:17.490Z,1.90
2019-02-20T22:22:03.486Z,1.53
2019-02-20T22:24:45.235Z,2.77
2019-02-20T22:27:31.917Z,2.60
2019-02-20T22:30:18.973Z,2.47
2019-02-20T22:33:03.921Z,2.00
2019-02-20T22:36:06.363Z,1.60
2019-02-20T22:38:53.488Z,3.07
2019-02-20T22:41:28.338Z,2.30
2019-02-20T22:44:09.132Z,2.40
2019-02-20T22:46:46.529Z,2.10
2019-02-20T22:49:24.984Z,3.77
2019-02-20T22:51:56.556Z,2.87
2019-02-20T22:54:45.596Z,2.97
2019-02-20T22:57:30.719Z,2.23
2019-02-20T23:00:34.394Z,2.90
2019-02-20T23:03:00.332Z,2.20
2019-02-20T23:05:55.976Z,2.33
2019-02-20T23:08:46.019Z,1.80
2019-02-20T23:11:24.915Z,1.83
2019-02-20T23:14:24.699Z,1.90
2019-02-20T23:16:52.773Z,1.83
2019-02-20T23:19:20.732Z,1.90
2019-02-20T23:21:48.863Z,1.60
2019-02-20T23:24:16.960Z,1.37
2019-02-20T23:26:44.955Z,1.10
2019-02-20T23:29:12.954Z,1.10
2019-02-20T23:31:41.032Z,1.17
2019-02-20T23:34:09.066Z,1.20
2019-02-20T23:36:37.068Z,1.60
2019-02-20T23:39:05.623Z,1.47
2019-02-20T23:41:33.533Z,1.30
2019-02-20T23:44:01.506Z,1.40
2019-02-20T23:46:29.769Z,1.33
2019-02-20T23:48:57.864Z,1.20
2019-02-20T23:51:25.938Z,1.30
2019-02-20T23:53:56.092Z,1.30
2019-02-20T23:56:24.092Z,1.50
2019-02-20T23:58:52.097Z,1.20
